QTR1169 OERK-OTHH
Flight info
| Callsign | QTR1169 |
|---|---|
| Flight time | 0h 47m |
| Altitude | 35000 |
| Route | OTALI M440 SITER DCT LADBO/N0520F290 T142 LAEEB |
| Aircraft | B789/H-SDE1E2E3FGHIJ2J3J4J5M1RWXY/LB1D1 |
Departure
| Time | 2026-05-05 01:51 |
|---|---|
| Airport | King Khalid International Airport (OERK) |
Arrival
| Time | 2026-05-05 02:39 |
|---|---|
| Airport | Hamad International Airport (OTHH) |
| Time | Latitude | Longitude | Altitude | Speed | Heading |
|---|---|---|---|---|---|
| 2026-05-05 01:38 | 24.94652 | 46.71557 | 2044 ft | 3 kts | 240° |
| 2026-05-05 01:39 | 24.94658 | 46.71577 | 2042 ft | 3 kts | 265° |
| 2026-05-05 01:39 | 24.94659 | 46.71599 | 2045 ft | 3 kts | 268° |
| 2026-05-05 01:39 | 24.94658 | 46.71621 | 2041 ft | 3 kts | 285° |
| 2026-05-05 01:39 | 24.94649 | 46.71639 | 2041 ft | 3 kts | 324° |
| 2026-05-05 01:40 | 24.94640 | 46.71645 | 2045 ft | 0 kts | 330° |
| 2026-05-05 01:43 | 24.94646 | 46.71641 | 2040 ft | 1 kts | 330° |
| 2026-05-05 01:43 | 24.94658 | 46.71633 | 2044 ft | 3 kts | 330° |
| 2026-05-05 01:44 | 24.94678 | 46.71621 | 2047 ft | 4 kts | 330° |
| 2026-05-05 01:44 | 24.94710 | 46.71600 | 2043 ft | 7 kts | 330° |
| 2026-05-05 01:44 | 24.94758 | 46.71596 | 2039 ft | 7 kts | 24° |
| 2026-05-05 01:44 | 24.94795 | 46.71642 | 2042 ft | 9 kts | 52° |
| 2026-05-05 01:45 | 24.94849 | 46.71650 | 2044 ft | 9 kts | 341° |
| 2026-05-05 01:45 | 24.94909 | 46.71615 | 2044 ft | 11 kts | 330° |
| 2026-05-05 01:45 | 24.94984 | 46.71568 | 2046 ft | 13 kts | 330° |
| 2026-05-05 01:45 | 24.95072 | 46.71512 | 2042 ft | 16 kts | 330° |
| 2026-05-05 01:46 | 24.95171 | 46.71450 | 2044 ft | 18 kts | 330° |
| 2026-05-05 01:46 | 24.95283 | 46.71379 | 2044 ft | 19 kts | 330° |
| 2026-05-05 01:46 | 24.95407 | 46.71300 | 2045 ft | 21 kts | 330° |
| 2026-05-05 01:46 | 24.95540 | 46.71216 | 2040 ft | 23 kts | 330° |
| 2026-05-05 01:47 | 24.95682 | 46.71126 | 2044 ft | 24 kts | 330° |
| 2026-05-05 01:47 | 24.95830 | 46.71032 | 2044 ft | 26 kts | 330° |
| 2026-05-05 01:47 | 24.95991 | 46.70931 | 2045 ft | 27 kts | 330° |
| 2026-05-05 01:47 | 24.96154 | 46.70828 | 2040 ft | 28 kts | 330° |
| 2026-05-05 01:48 | 24.96320 | 46.70723 | 2043 ft | 28 kts | 330° |
| 2026-05-05 01:48 | 24.96486 | 46.70618 | 2038 ft | 27 kts | 330° |
| 2026-05-05 01:48 | 24.96650 | 46.70515 | 2037 ft | 27 kts | 330° |
| 2026-05-05 01:48 | 24.96812 | 46.70412 | 2039 ft | 27 kts | 330° |
| 2026-05-05 01:49 | 24.96948 | 46.70326 | 2044 ft | 15 kts | 330° |
| 2026-05-05 01:49 | 24.97020 | 46.70335 | 2038 ft | 10 kts | 43° |
| 2026-05-05 01:49 | 24.97058 | 46.70400 | 2038 ft | 10 kts | 60° |
| 2026-05-05 01:49 | 24.97095 | 46.70470 | 2042 ft | 11 kts | 60° |
| 2026-05-05 01:50 | 24.97126 | 46.70534 | 2040 ft | 7 kts | 79° |
| 2026-05-05 01:50 | 24.97108 | 46.70568 | 2042 ft | 4 kts | 145° |
| 2026-05-05 01:50 | 24.97074 | 46.70588 | 2042 ft | 11 kts | 152° |
| 2026-05-05 01:50 | 24.96888 | 46.70704 | 2043 ft | 56 kts | 150° |
| 2026-05-05 01:51 | 24.96380 | 46.71026 | 2043 ft | 112 kts | 150° |
| 2026-05-05 01:51 | 24.95557 | 46.71546 | 2047 ft | 158 kts | 150° |
| 2026-05-05 01:51 | 24.94529 | 46.72201 | 2470 ft | 178 kts | 148° |
| 2026-05-05 01:51 | 24.93543 | 46.73062 | 3331 ft | 177 kts | 139° |
| 2026-05-05 01:52 | 24.92583 | 46.73958 | 4032 ft | 193 kts | 144° |
| 2026-05-05 01:52 | 24.91459 | 46.74962 | 4693 ft | 219 kts | 144° |
| 2026-05-05 01:52 | 24.90240 | 46.76076 | 5346 ft | 244 kts | 143° |
| 2026-05-05 01:52 | 24.89159 | 46.77631 | 6033 ft | 274 kts | 117° |
| 2026-05-05 01:53 | 24.88742 | 46.79745 | 6733 ft | 293 kts | 91° |
| 2026-05-05 01:53 | 24.89242 | 46.81940 | 7446 ft | 302 kts | 66° |
| 2026-05-05 01:53 | 24.90177 | 46.84029 | 8129 ft | 308 kts | 65° |
| 2026-05-05 01:53 | 24.91131 | 46.86152 | 8964 ft | 310 kts | 64° |
| 2026-05-05 01:54 | 24.92095 | 46.88310 | 9763 ft | 318 kts | 64° |
| 2026-05-05 01:54 | 24.93089 | 46.90555 | 10515 ft | 335 kts | 64° |
| 2026-05-05 01:54 | 24.94136 | 46.92921 | 11272 ft | 351 kts | 64° |
| 2026-05-05 01:54 | 24.95235 | 46.95397 | 12039 ft | 366 kts | 63° |
| 2026-05-05 01:55 | 24.96380 | 46.97978 | 12812 ft | 381 kts | 63° |
| 2026-05-05 01:55 | 24.97561 | 47.00647 | 13593 ft | 394 kts | 63° |
| 2026-05-05 01:55 | 24.98780 | 47.03404 | 14329 ft | 406 kts | 64° |
| 2026-05-05 01:55 | 24.99662 | 47.06388 | 15069 ft | 416 kts | 82° |
| 2026-05-05 01:56 | 24.99677 | 47.09591 | 15847 ft | 423 kts | 100° |
| 2026-05-05 01:56 | 24.98841 | 47.12706 | 16642 ft | 427 kts | 117° |
| 2026-05-05 01:56 | 24.97284 | 47.15512 | 17454 ft | 430 kts | 128° |
| 2026-05-05 01:56 | 24.95486 | 47.18113 | 18223 ft | 435 kts | 130° |
| 2026-05-05 01:57 | 24.93621 | 47.20759 | 18898 ft | 440 kts | 128° |
| 2026-05-05 01:57 | 24.91848 | 47.23543 | 19599 ft | 445 kts | 126° |
| 2026-05-05 01:57 | 24.90099 | 47.26368 | 20291 ft | 449 kts | 127° |
| 2026-05-05 01:57 | 24.88275 | 47.29169 | 21029 ft | 452 kts | 128° |
| 2026-05-05 01:58 | 24.86410 | 47.31971 | 21776 ft | 454 kts | 128° |
| 2026-05-05 01:58 | 24.84566 | 47.34805 | 22518 ft | 456 kts | 128° |
| 2026-05-05 01:58 | 24.82730 | 47.37665 | 23298 ft | 456 kts | 128° |
| 2026-05-05 01:58 | 24.80887 | 47.40505 | 23972 ft | 456 kts | 128° |
| 2026-05-05 01:59 | 24.79026 | 47.43346 | 24630 ft | 456 kts | 129° |
| 2026-05-05 01:59 | 24.77174 | 47.46183 | 25300 ft | 456 kts | 129° |
| 2026-05-05 01:59 | 24.75334 | 47.49015 | 25999 ft | 455 kts | 129° |
| 2026-05-05 01:59 | 24.73491 | 47.51846 | 26704 ft | 454 kts | 129° |
| 2026-05-05 02:00 | 24.71647 | 47.54668 | 27431 ft | 453 kts | 129° |
| 2026-05-05 02:00 | 24.70433 | 47.56525 | 27914 ft | 452 kts | 130° |
| 2026-05-05 02:00 | 24.68011 | 47.60234 | 28913 ft | 448 kts | 130° |
| 2026-05-05 02:00 | 24.66197 | 47.63012 | 29705 ft | 445 kts | 130° |
| 2026-05-05 02:01 | 24.64979 | 47.64875 | 30168 ft | 443 kts | 131° |
| 2026-05-05 02:01 | 24.63177 | 47.67625 | 30639 ft | 447 kts | 131° |
| 2026-05-05 02:01 | 24.61341 | 47.70423 | 30857 ft | 456 kts | 131° |
| 2026-05-05 02:01 | 24.59465 | 47.73285 | 31086 ft | 464 kts | 131° |
| 2026-05-05 02:02 | 24.57566 | 47.76189 | 31320 ft | 472 kts | 131° |
| 2026-05-05 02:02 | 24.55740 | 47.79163 | 31572 ft | 482 kts | 122° |
| 2026-05-05 02:02 | 24.54378 | 47.82562 | 31871 ft | 492 kts | 113° |
| 2026-05-05 02:02 | 24.53212 | 47.86123 | 32115 ft | 498 kts | 113° |
| 2026-05-05 02:03 | 24.52045 | 47.89726 | 32369 ft | 503 kts | 113° |
| 2026-05-05 02:03 | 24.50863 | 47.93369 | 32636 ft | 508 kts | 114° |
| 2026-05-05 02:03 | 24.49660 | 47.97042 | 32891 ft | 513 kts | 114° |
| 2026-05-05 02:03 | 24.48446 | 48.00742 | 33146 ft | 517 kts | 114° |
| 2026-05-05 02:04 | 24.47225 | 48.04480 | 33409 ft | 521 kts | 113° |
| 2026-05-05 02:04 | 24.45994 | 48.08246 | 33664 ft | 525 kts | 114° |
| 2026-05-05 02:04 | 24.44755 | 48.12025 | 33913 ft | 528 kts | 114° |
| 2026-05-05 02:04 | 24.43504 | 48.15831 | 34138 ft | 532 kts | 114° |
| 2026-05-05 02:05 | 24.42245 | 48.19663 | 34369 ft | 534 kts | 114° |
| 2026-05-05 02:05 | 24.40983 | 48.23506 | 34589 ft | 537 kts | 114° |
| 2026-05-05 02:05 | 24.39709 | 48.27377 | 34820 ft | 540 kts | 114° |
| 2026-05-05 02:05 | 24.38425 | 48.31270 | 34838 ft | 547 kts | 114° |
| 2026-05-05 02:06 | 24.35831 | 48.39140 | 34835 ft | 548 kts | 113° |
| 2026-05-05 02:06 | 24.33235 | 48.46990 | 34827 ft | 547 kts | 114° |
| 2026-05-05 02:07 | 24.30636 | 48.54839 | 34812 ft | 547 kts | 113° |
| 2026-05-05 02:07 | 24.28038 | 48.62666 | 34807 ft | 546 kts | 114° |
| 2026-05-05 02:08 | 24.25405 | 48.70586 | 34800 ft | 545 kts | 114° |
| 2026-05-05 02:08 | 24.22851 | 48.78253 | 34798 ft | 544 kts | 114° |
| 2026-05-05 02:09 | 24.20251 | 48.86051 | 34735 ft | 543 kts | 113° |
| 2026-05-05 02:09 | 24.19222 | 48.90033 | 34795 ft | 546 kts | 102° |
| 2026-05-05 02:09 | 24.18843 | 48.94198 | 34800 ft | 552 kts | 90° |
| 2026-05-05 02:10 | 24.19329 | 49.02591 | 34793 ft | 553 kts | 86° |
| 2026-05-05 02:10 | 24.19946 | 49.10981 | 34791 ft | 553 kts | 87° |
| 2026-05-05 02:11 | 24.20521 | 49.19366 | 34793 ft | 552 kts | 87° |
| 2026-05-05 02:11 | 24.21111 | 49.27706 | 34791 ft | 552 kts | 87° |
| 2026-05-05 02:12 | 24.21977 | 49.40319 | 34793 ft | 551 kts | 87° |
| 2026-05-05 02:13 | 24.22550 | 49.48702 | 34802 ft | 551 kts | 87° |
| 2026-05-05 02:13 | 24.23118 | 49.57076 | 34828 ft | 552 kts | 87° |
| 2026-05-05 02:14 | 24.23687 | 49.65526 | 34763 ft | 552 kts | 87° |
| 2026-05-05 02:14 | 24.24244 | 49.73893 | 34827 ft | 551 kts | 87° |
| 2026-05-05 02:15 | 24.24795 | 49.82222 | 34809 ft | 551 kts | 87° |
| 2026-05-05 02:15 | 24.25345 | 49.90605 | 34806 ft | 551 kts | 87° |
| 2026-05-05 02:16 | 24.25890 | 49.98988 | 34802 ft | 550 kts | 87° |
| 2026-05-05 02:16 | 24.26428 | 50.07342 | 34796 ft | 550 kts | 87° |
| 2026-05-05 02:17 | 24.26963 | 50.15706 | 34802 ft | 550 kts | 87° |
| 2026-05-05 02:17 | 24.27492 | 50.24058 | 34802 ft | 549 kts | 87° |
| 2026-05-05 02:18 | 24.28017 | 50.32425 | 34799 ft | 549 kts | 87° |
| 2026-05-05 02:18 | 24.28536 | 50.40768 | 34798 ft | 548 kts | 87° |
| 2026-05-05 02:19 | 24.29051 | 50.49106 | 34787 ft | 548 kts | 87° |
| 2026-05-05 02:19 | 24.29561 | 50.57449 | 34786 ft | 548 kts | 87° |
| 2026-05-05 02:20 | 24.30063 | 50.65736 | 34791 ft | 548 kts | 87° |
| 2026-05-05 02:20 | 24.30564 | 50.74077 | 34786 ft | 548 kts | 87° |
| 2026-05-05 02:21 | 24.31060 | 50.82426 | 34371 ft | 551 kts | 87° |
| 2026-05-05 02:21 | 24.31308 | 50.86610 | 34033 ft | 546 kts | 87° |
| 2026-05-05 02:21 | 24.31552 | 50.90745 | 33688 ft | 543 kts | 87° |
| 2026-05-05 02:21 | 24.31793 | 50.94872 | 33292 ft | 543 kts | 87° |
| 2026-05-05 02:22 | 24.32033 | 50.99010 | 32917 ft | 543 kts | 87° |
| 2026-05-05 02:22 | 24.32273 | 51.03142 | 32545 ft | 544 kts | 87° |
| 2026-05-05 02:22 | 24.32513 | 51.07295 | 32180 ft | 544 kts | 87° |
| 2026-05-05 02:22 | 24.32751 | 51.11440 | 31815 ft | 544 kts | 87° |
| 2026-05-05 02:23 | 24.33006 | 51.15574 | 31364 ft | 543 kts | 83° |
| 2026-05-05 02:23 | 24.33744 | 51.19615 | 30946 ft | 540 kts | 72° |
| 2026-05-05 02:23 | 24.35122 | 51.23427 | 30544 ft | 537 kts | 61° |
| 2026-05-05 02:23 | 24.37078 | 51.26900 | 30145 ft | 532 kts | 51° |
| 2026-05-05 02:24 | 24.39532 | 51.29900 | 29733 ft | 524 kts | 40° |
| 2026-05-05 02:24 | 24.42171 | 51.32642 | 29213 ft | 522 kts | 41° |
| 2026-05-05 02:24 | 24.44800 | 51.35370 | 28695 ft | 516 kts | 41° |
| 2026-05-05 02:24 | 24.47403 | 51.38046 | 28172 ft | 510 kts | 41° |
| 2026-05-05 02:25 | 24.49980 | 51.40702 | 27672 ft | 504 kts | 41° |
| 2026-05-05 02:25 | 24.52548 | 51.43185 | 27208 ft | 494 kts | 33° |
| 2026-05-05 02:25 | 24.55498 | 51.45139 | 26755 ft | 485 kts | 23° |
| 2026-05-05 02:25 | 24.58513 | 51.46771 | 26282 ft | 482 kts | 23° |
| 2026-05-05 02:26 | 24.61512 | 51.48388 | 25814 ft | 478 kts | 23° |
| 2026-05-05 02:26 | 24.64492 | 51.49989 | 25351 ft | 474 kts | 24° |
| 2026-05-05 02:26 | 24.67437 | 51.51579 | 24892 ft | 470 kts | 24° |
| 2026-05-05 02:26 | 24.70352 | 51.53036 | 24451 ft | 463 kts | 21° |
| 2026-05-05 02:27 | 24.73313 | 51.54477 | 24014 ft | 455 kts | 22° |
| 2026-05-05 02:27 | 24.76125 | 51.55891 | 23568 ft | 446 kts | 22° |
| 2026-05-05 02:27 | 24.78935 | 51.57272 | 23093 ft | 439 kts | 22° |
| 2026-05-05 02:27 | 24.81721 | 51.58679 | 22569 ft | 431 kts | 28° |
| 2026-05-05 02:28 | 24.84118 | 51.60552 | 22090 ft | 426 kts | 41° |
| 2026-05-05 02:28 | 24.86095 | 51.62947 | 21628 ft | 421 kts | 54° |
| 2026-05-05 02:28 | 24.87572 | 51.65621 | 21158 ft | 414 kts | 59° |
| 2026-05-05 02:28 | 24.89000 | 51.68384 | 20666 ft | 409 kts | 60° |
| 2026-05-05 02:29 | 24.90376 | 51.71099 | 20180 ft | 404 kts | 60° |
| 2026-05-05 02:29 | 24.91734 | 51.73786 | 19702 ft | 399 kts | 60° |
| 2026-05-05 02:29 | 24.93084 | 51.76437 | 19230 ft | 394 kts | 60° |
| 2026-05-05 02:29 | 24.94419 | 51.79054 | 18771 ft | 390 kts | 60° |
| 2026-05-05 02:30 | 24.95737 | 51.81648 | 18317 ft | 385 kts | 60° |
| 2026-05-05 02:30 | 24.97047 | 51.84232 | 17706 ft | 384 kts | 60° |
| 2026-05-05 02:30 | 24.98350 | 51.86801 | 17067 ft | 383 kts | 59° |
| 2026-05-05 02:30 | 24.99634 | 51.89332 | 16448 ft | 381 kts | 59° |
| 2026-05-05 02:31 | 25.00923 | 51.91874 | 15838 ft | 379 kts | 59° |
| 2026-05-05 02:31 | 25.02288 | 51.94341 | 15264 ft | 373 kts | 47° |
| 2026-05-05 02:31 | 25.04176 | 51.96238 | 14707 ft | 363 kts | 29° |
| 2026-05-05 02:31 | 25.06433 | 51.97375 | 14177 ft | 353 kts | 12° |
| 2026-05-05 02:32 | 25.08832 | 51.97708 | 13654 ft | 344 kts | 355° |
| 2026-05-05 02:32 | 25.11153 | 51.97264 | 13068 ft | 336 kts | 339° |
| 2026-05-05 02:32 | 25.13170 | 51.96033 | 12486 ft | 331 kts | 318° |
| 2026-05-05 02:32 | 25.14531 | 51.94005 | 11822 ft | 333 kts | 295° |
| 2026-05-05 02:33 | 25.14999 | 51.91507 | 11182 ft | 337 kts | 272° |
| 2026-05-05 02:33 | 25.14690 | 51.88998 | 10490 ft | 322 kts | 262° |
| 2026-05-05 02:33 | 25.14203 | 51.86639 | 9785 ft | 309 kts | 262° |
| 2026-05-05 02:33 | 25.13579 | 51.84400 | 9041 ft | 301 kts | 255° |
| 2026-05-05 02:34 | 25.12835 | 51.82275 | 8291 ft | 294 kts | 253° |
| 2026-05-05 02:34 | 25.12102 | 51.80183 | 7573 ft | 288 kts | 254° |
| 2026-05-05 02:34 | 25.11421 | 51.78133 | 6852 ft | 280 kts | 254° |
| 2026-05-05 02:34 | 25.10771 | 51.76158 | 6166 ft | 275 kts | 254° |
| 2026-05-05 02:35 | 25.10114 | 51.74166 | 5420 ft | 268 kts | 256° |
| 2026-05-05 02:35 | 25.09943 | 51.72188 | 4710 ft | 255 kts | 281° |
| 2026-05-05 02:35 | 25.10464 | 51.70427 | 3988 ft | 232 kts | 304° |
| 2026-05-05 02:35 | 25.11481 | 51.69107 | 3290 ft | 224 kts | 325° |
| 2026-05-05 02:36 | 25.12800 | 51.68308 | 2850 ft | 211 kts | 340° |
| 2026-05-05 02:36 | 25.13689 | 51.67924 | 2556 ft | 205 kts | 340° |
| 2026-05-05 02:36 | 25.14981 | 51.67358 | 2122 ft | 196 kts | 340° |
| 2026-05-05 02:36 | 25.16562 | 51.66673 | 2016 ft | 174 kts | 341° |
| 2026-05-05 02:37 | 25.17317 | 51.66346 | 2015 ft | 172 kts | 341° |
| 2026-05-05 02:37 | 25.18429 | 51.65863 | 2011 ft | 171 kts | 341° |
| 2026-05-05 02:37 | 25.19520 | 51.65377 | 2012 ft | 171 kts | 340° |
| 2026-05-05 02:37 | 25.20652 | 51.64874 | 1722 ft | 178 kts | 340° |
| 2026-05-05 02:38 | 25.21783 | 51.64345 | 1157 ft | 183 kts | 339° |
| 2026-05-05 02:38 | 25.22976 | 51.63846 | 724 ft | 177 kts | 340° |
| 2026-05-05 02:38 | 25.24088 | 51.63363 | 391 ft | 169 kts | 336° |
| 2026-05-05 02:38 | 25.25127 | 51.62880 | 133 ft | 156 kts | 335° |
| 2026-05-05 02:39 | 25.26097 | 51.62447 | 29 ft | 138 kts | 338° |
| 2026-05-05 02:39 | 25.26831 | 51.62127 | 29 ft | 87 kts | 339° |
| 2026-05-05 02:39 | 25.27236 | 51.61948 | 28 ft | 48 kts | 337° |
| 2026-05-05 02:39 | 25.27439 | 51.61777 | 29 ft | 22 kts | 309° |
| 2026-05-05 02:40 | 25.27442 | 51.61669 | 28 ft | 14 kts | 201° |
| 2026-05-05 02:40 | 25.27355 | 51.61690 | 28 ft | 13 kts | 157° |
| 2026-05-05 02:40 | 25.27268 | 51.61731 | 27 ft | 14 kts | 157° |
| 2026-05-05 02:40 | 25.27175 | 51.61771 | 27 ft | 15 kts | 158° |
| 2026-05-05 02:41 | 25.27076 | 51.61814 | 27 ft | 16 kts | 158° |
| 2026-05-05 02:41 | 25.26971 | 51.61860 | 27 ft | 17 kts | 158° |
| 2026-05-05 02:41 | 25.26861 | 51.61909 | 27 ft | 17 kts | 156° |
| 2026-05-05 02:41 | 25.26748 | 51.61960 | 27 ft | 18 kts | 158° |
| 2026-05-05 02:42 | 25.26634 | 51.62011 | 27 ft | 15 kts | 158° |
| 2026-05-05 02:42 | 25.26558 | 51.61982 | 27 ft | 12 kts | 242° |
| 2026-05-05 02:42 | 25.26528 | 51.61899 | 28 ft | 12 kts | 249° |
| 2026-05-05 02:42 | 25.26496 | 51.61809 | 28 ft | 13 kts | 248° |
| 2026-05-05 02:43 | 25.26461 | 51.61712 | 28 ft | 14 kts | 248° |
| 2026-05-05 02:43 | 25.26423 | 51.61610 | 28 ft | 15 kts | 248° |
| 2026-05-05 02:43 | 25.26390 | 51.61511 | 26 ft | 13 kts | 262° |
| 2026-05-05 02:43 | 25.26378 | 51.61429 | 28 ft | 8 kts | 248° |
| 2026-05-05 02:44 | 25.26358 | 51.61375 | 28 ft | 4 kts | 247° |
| 2026-05-05 02:44 | 25.26356 | 51.61371 | 28 ft | 0 kts | 247° |